createdAt,value
2022-07-30T00:00:11.079Z,984.27
2022-07-30T00:01:11.111Z,984.31
2022-07-30T00:02:11.039Z,984.28
2022-07-30T00:03:11.040Z,984.35
2022-07-30T00:04:11.010Z,984.28
2022-07-30T00:05:11.000Z,984.32
2022-07-30T00:06:11.002Z,984.29
2022-07-30T00:07:10.980Z,984.32
2022-07-30T00:08:10.982Z,984.33
2022-07-30T00:09:10.960Z,984.30
2022-07-30T00:10:10.951Z,984.30
2022-07-30T00:11:10.961Z,984.31
2022-07-30T00:12:10.933Z,984.31
2022-07-30T00:13:10.912Z,984.23
2022-07-30T00:14:10.903Z,984.24
2022-07-30T00:15:10.893Z,984.23
2022-07-30T00:16:10.954Z,984.23
2022-07-30T00:17:10.953Z,984.25
2022-07-30T00:18:11.938Z,984.32
2022-07-30T00:19:10.863Z,984.35
2022-07-30T00:20:10.833Z,984.39
2022-07-30T00:21:11.158Z,984.43
2022-07-30T00:22:11.894Z,984.41
2022-07-30T00:23:10.814Z,984.40
2022-07-30T00:24:10.785Z,984.45
2022-07-30T00:25:10.796Z,984.44
2022-07-30T00:26:10.775Z,984.42
2022-07-30T00:27:10.776Z,984.46
2022-07-30T00:28:10.747Z,984.50
2022-07-30T00:29:10.748Z,984.43
2022-07-30T00:30:10.729Z,984.50
2022-07-30T00:31:10.780Z,984.49
2022-07-30T00:32:10.709Z,984.53
2022-07-30T00:33:10.708Z,984.44
2022-07-30T00:34:10.678Z,984.48
2022-07-30T00:35:10.669Z,984.45
2022-07-30T00:36:10.679Z,984.48
2022-07-30T00:37:10.688Z,984.45
2022-07-30T00:38:10.658Z,984.48
2022-07-30T00:39:10.630Z,984.45
2022-07-30T00:40:10.626Z,984.51
2022-07-30T00:41:10.647Z,984.48
2022-07-30T00:42:10.607Z,984.49
2022-07-30T00:43:10.607Z,984.43
2022-07-30T00:44:10.572Z,984.49
2022-07-30T00:45:10.582Z,984.50
2022-07-30T00:46:10.688Z,984.50
2022-07-30T00:47:10.571Z,984.51
2022-07-30T00:48:10.552Z,984.53
2022-07-30T00:49:10.603Z,984.49
2022-07-30T00:50:10.523Z,984.50
2022-07-30T00:51:10.502Z,984.48
2022-07-30T00:52:10.482Z,984.49
2022-07-30T00:53:10.483Z,984.48
2022-07-30T00:54:10.465Z,984.47
2022-07-30T00:55:10.483Z,984.50
2022-07-30T00:56:10.474Z,984.49
2022-07-30T00:57:10.432Z,984.48
2022-07-30T00:58:10.423Z,984.52
2022-07-30T00:59:10.416Z,984.49
2022-07-30T01:00:10.406Z,984.54
2022-07-30T01:01:10.480Z,984.52
2022-07-30T01:02:10.425Z,984.48
2022-07-30T01:03:10.389Z,984.50
2022-07-30T01:04:10.346Z,984.50
2022-07-30T01:05:10.348Z,984.51
2022-07-30T01:06:14.208Z,984.46
2022-07-30T01:07:10.331Z,984.50
2022-07-30T01:08:10.318Z,984.49
2022-07-30T01:09:10.348Z,984.50
2022-07-30T01:10:10.290Z,984.51
2022-07-30T01:11:10.279Z,984.56
2022-07-30T01:12:10.289Z,984.52
2022-07-30T01:13:10.281Z,984.56
2022-07-30T01:14:10.264Z,984.51
2022-07-30T01:15:10.284Z,984.48
2022-07-30T01:16:10.278Z,984.55
2022-07-30T01:17:10.244Z,984.53
2022-07-30T01:18:10.208Z,984.52
2022-07-30T01:19:10.219Z,984.50
2022-07-30T01:20:10.202Z,984.55
2022-07-30T01:21:10.191Z,984.52
2022-07-30T01:22:10.179Z,984.47
2022-07-30T01:23:10.172Z,984.42
2022-07-30T01:24:10.152Z,984.46
2022-07-30T01:25:10.142Z,984.48
2022-07-30T01:26:10.122Z,984.47
2022-07-30T01:27:10.131Z,984.49
2022-07-30T01:28:10.102Z,984.54
2022-07-30T01:29:10.093Z,984.50
2022-07-30T01:30:10.183Z,984.48
2022-07-30T01:31:10.148Z,984.51
2022-07-30T01:32:10.051Z,984.48
2022-07-30T01:33:10.030Z,984.59
2022-07-30T01:34:10.051Z,984.58
2022-07-30T01:35:10.011Z,984.60
2022-07-30T01:36:10.002Z,984.61
2022-07-30T01:37:10.004Z,984.64
2022-07-30T01:38:10.003Z,984.58
2022-07-30T01:39:09.972Z,984.62
2022-07-30T01:40:09.953Z,984.68
2022-07-30T01:41:09.946Z,984.73
2022-07-30T01:42:09.943Z,984.67
2022-07-30T01:43:09.963Z,984.66
2022-07-30T01:44:09.934Z,984.66
2022-07-30T01:45:09.903Z,984.66
2022-07-30T01:46:09.956Z,984.69
2022-07-30T01:47:09.895Z,984.66
2022-07-30T01:48:09.913Z,984.68
2022-07-30T01:49:09.897Z,984.76
2022-07-30T01:50:11.122Z,984.74
2022-07-30T01:51:09.856Z,984.75
2022-07-30T01:52:09.849Z,984.70
2022-07-30T01:53:09.818Z,984.74
2022-07-30T01:54:09.849Z,984.79
2022-07-30T01:55:11.636Z,984.83
2022-07-30T01:56:11.516Z,984.81
2022-07-30T01:57:09.797Z,984.80
2022-07-30T01:58:09.768Z,984.80
2022-07-30T01:59:09.757Z,984.78
2022-07-30T02:00:09.768Z,984.74
2022-07-30T02:01:09.845Z,984.78
2022-07-30T02:02:09.757Z,984.80
2022-07-30T02:03:09.824Z,984.84
2022-07-30T02:04:09.719Z,984.78
2022-07-30T02:05:09.700Z,984.78
2022-07-30T02:06:09.692Z,984.77
2022-07-30T02:07:09.719Z,984.79
2022-07-30T02:08:09.660Z,984.77
2022-07-30T02:09:11.118Z,984.75
2022-07-30T02:10:09.651Z,984.73
2022-07-30T02:11:09.638Z,984.73
2022-07-30T02:12:09.632Z,984.75
2022-07-30T02:13:09.631Z,984.75
2022-07-30T02:14:09.625Z,984.74
2022-07-30T02:15:09.596Z,984.72
2022-07-30T02:16:09.687Z,984.75
2022-07-30T02:17:19.086Z,984.67
2022-07-30T02:18:10.573Z,984.72
2022-07-30T02:19:09.554Z,984.69
2022-07-30T02:20:10.136Z,984.72
2022-07-30T02:21:10.135Z,984.71
2022-07-30T02:22:09.514Z,984.70
2022-07-30T02:23:09.542Z,984.69
2022-07-30T02:24:09.485Z,984.72
2022-07-30T02:25:09.503Z,984.62
2022-07-30T02:26:09.485Z,984.68
2022-07-30T02:27:09.475Z,984.68
2022-07-30T02:28:09.464Z,984.68
2022-07-30T02:29:11.399Z,984.70
2022-07-30T02:30:09.446Z,984.68
2022-07-30T02:31:17.700Z,984.69
2022-07-30T02:32:10.407Z,984.70
2022-07-30T02:33:09.427Z,984.63
2022-07-30T02:34:09.397Z,984.67
2022-07-30T02:35:09.379Z,984.74
2022-07-30T02:36:11.323Z,984.66
2022-07-30T02:37:09.390Z,984.74
2022-07-30T02:38:09.377Z,984.75
2022-07-30T02:39:09.368Z,984.71
2022-07-30T02:40:09.319Z,984.79
2022-07-30T02:41:10.479Z,984.72
2022-07-30T02:42:09.310Z,984.80
2022-07-30T02:43:09.308Z,984.78
2022-07-30T02:44:09.300Z,984.77
2022-07-30T02:45:09.291Z,984.80
2022-07-30T02:46:09.291Z,984.90
2022-07-30T02:47:09.367Z,984.90
2022-07-30T02:48:09.252Z,984.91
2022-07-30T02:49:09.267Z,984.92
2022-07-30T02:50:09.213Z,984.96
2022-07-30T02:51:09.242Z,984.98
2022-07-30T02:52:09.211Z,985.00
2022-07-30T02:53:09.209Z,984.98
2022-07-30T02:54:09.181Z,984.97
2022-07-30T02:55:09.185Z,985.01
2022-07-30T02:56:09.193Z,985.01
2022-07-30T02:57:09.154Z,985.03
2022-07-30T02:58:09.142Z,984.99
2022-07-30T02:59:09.125Z,985.02
2022-07-30T03:00:09.114Z,985.01
2022-07-30T03:01:09.183Z,985.00
2022-07-30T03:02:09.168Z,984.99
2022-07-30T03:03:09.097Z,985.02
2022-07-30T03:04:09.104Z,985.03
2022-07-30T03:05:09.066Z,985.06
2022-07-30T03:06:09.066Z,985.07
2022-07-30T03:07:09.444Z,985.07
2022-07-30T03:08:09.057Z,985.07
2022-07-30T03:09:09.016Z,985.07
2022-07-30T03:10:09.028Z,985.07
2022-07-30T03:11:09.009Z,985.08
2022-07-30T03:12:09.008Z,985.17
2022-07-30T03:13:08.988Z,985.05
2022-07-30T03:14:08.999Z,985.07
2022-07-30T03:15:08.980Z,985.14
2022-07-30T03:16:08.996Z,985.11
2022-07-30T03:17:08.960Z,985.09
2022-07-30T03:18:08.939Z,985.09
2022-07-30T03:19:08.919Z,985.11
2022-07-30T03:20:08.947Z,985.11
2022-07-30T03:21:08.900Z,985.17
2022-07-30T03:22:08.891Z,985.16
2022-07-30T03:23:08.881Z,985.15
2022-07-30T03:24:08.871Z,985.15
2022-07-30T03:25:08.872Z,985.17
2022-07-30T03:26:08.882Z,985.17
2022-07-30T03:27:08.841Z,985.19
2022-07-30T03:28:08.843Z,985.19
2022-07-30T03:29:08.841Z,985.13
2022-07-30T03:30:08.803Z,985.14
2022-07-30T03:31:08.863Z,985.14
2022-07-30T03:32:08.806Z,985.16
2022-07-30T03:33:08.774Z,985.17
2022-07-30T03:34:08.782Z,985.20
2022-07-30T03:35:17.216Z,985.23
2022-07-30T03:36:09.736Z,985.15
2022-07-30T03:37:08.768Z,985.18
2022-07-30T03:38:08.725Z,985.19
2022-07-30T03:39:08.741Z,985.20
2022-07-30T03:40:08.735Z,985.24
2022-07-30T03:41:08.695Z,985.15
2022-07-30T03:42:08.702Z,985.22
2022-07-30T03:43:32.499Z,985.20
2022-07-30T03:44:09.673Z,985.21
2022-07-30T03:45:08.680Z,985.28
2022-07-30T03:46:08.722Z,985.27
2022-07-30T03:47:08.664Z,985.26
2022-07-30T03:48:08.698Z,985.35
2022-07-30T03:49:09.401Z,985.32
2022-07-30T03:50:08.609Z,985.34
2022-07-30T03:51:08.608Z,985.35
2022-07-30T03:52:08.598Z,985.37
2022-07-30T03:53:08.611Z,985.36
2022-07-30T03:54:13.132Z,985.34
2022-07-30T03:55:09.539Z,985.38
2022-07-30T03:56:08.527Z,985.37
2022-07-30T03:57:08.537Z,985.42
2022-07-30T03:58:08.520Z,985.45
2022-07-30T03:59:08.511Z,985.40
2022-07-30T04:00:08.509Z,985.41
2022-07-30T04:01:08.501Z,985.43
2022-07-30T04:02:08.530Z,985.41
2022-07-30T04:03:08.475Z,985.39
2022-07-30T04:04:08.510Z,985.38
2022-07-30T04:05:08.451Z,985.46
2022-07-30T04:06:08.437Z,985.43
2022-07-30T04:07:08.450Z,985.39
2022-07-30T04:08:08.422Z,985.43
2022-07-30T04:09:08.426Z,985.43
2022-07-30T04:10:08.377Z,985.44
2022-07-30T04:11:08.384Z,985.42
2022-07-30T04:12:08.373Z,985.47
2022-07-30T04:13:09.700Z,985.49
2022-07-30T04:14:08.335Z,985.55
2022-07-30T04:16:36.830Z,985.53
2022-07-30T04:16:39.284Z,985.55
2022-07-30T04:17:09.322Z,985.59
2022-07-30T04:18:08.304Z,985.59
2022-07-30T04:19:08.335Z,985.57
2022-07-30T04:20:08.294Z,985.61
2022-07-30T04:21:08.261Z,985.57
2022-07-30T04:22:09.287Z,985.62
2022-07-30T04:23:08.405Z,985.61
2022-07-30T04:24:08.224Z,985.61
2022-07-30T04:25:08.256Z,985.59
2022-07-30T04:26:08.217Z,985.65
2022-07-30T04:27:08.208Z,985.61
2022-07-30T04:28:08.208Z,985.69
2022-07-30T04:29:08.176Z,985.62
2022-07-30T04:30:08.200Z,985.62
2022-07-30T04:31:08.211Z,985.68
2022-07-30T04:32:08.138Z,985.71
2022-07-30T04:33:08.183Z,985.74
2022-07-30T04:34:08.158Z,985.75
2022-07-30T04:35:08.139Z,985.74
2022-07-30T04:36:08.130Z,985.74
2022-07-30T04:37:08.131Z,985.74
2022-07-30T04:38:08.070Z,985.74
2022-07-30T04:39:08.131Z,985.77
2022-07-30T04:40:08.073Z,985.78
2022-07-30T04:41:08.113Z,985.77
2022-07-30T04:42:08.043Z,985.74
2022-07-30T04:43:08.049Z,985.81
2022-07-30T04:44:08.010Z,985.77
2022-07-30T04:45:08.023Z,985.76
2022-07-30T04:46:08.049Z,985.85
2022-07-30T04:47:08.013Z,985.79
2022-07-30T04:48:07.981Z,985.76
2022-07-30T04:49:08.050Z,985.79
2022-07-30T04:50:07.964Z,985.81
2022-07-30T04:51:07.995Z,985.81
2022-07-30T04:52:07.963Z,985.79
2022-07-30T04:53:07.945Z,985.80
2022-07-30T04:54:07.916Z,985.85
2022-07-30T04:55:07.923Z,985.78
2022-07-30T04:56:07.905Z,985.83
2022-07-30T04:57:08.200Z,985.85
2022-07-30T04:58:07.905Z,985.79
2022-07-30T04:59:07.846Z,985.87
2022-07-30T05:00:07.903Z,985.83
2022-07-30T05:01:07.866Z,985.88
2022-07-30T05:02:07.969Z,985.87
2022-07-30T05:03:07.847Z,985.89
2022-07-30T05:04:07.794Z,985.85
2022-07-30T05:05:07.815Z,985.91
2022-07-30T05:06:07.804Z,985.93
2022-07-30T05:07:07.776Z,985.94
2022-07-30T05:08:07.767Z,985.94
2022-07-30T05:09:07.778Z,985.95
2022-07-30T05:10:07.733Z,985.97
2022-07-30T05:11:07.727Z,985.95
2022-07-30T05:12:07.740Z,986.01
2022-07-30T05:13:08.090Z,985.94
2022-07-30T05:14:07.977Z,985.97
2022-07-30T05:15:07.711Z,986.00
2022-07-30T05:16:07.688Z,986.01
2022-07-30T05:17:07.660Z,986.05
2022-07-30T05:18:07.641Z,986.07
2022-07-30T05:19:08.024Z,986.06
2022-07-30T05:20:07.656Z,986.08
2022-07-30T05:21:07.632Z,986.04
2022-07-30T05:22:07.661Z,986.08
2022-07-30T05:23:07.622Z,986.12
2022-07-30T05:24:07.612Z,986.09
2022-07-30T05:25:15.792Z,986.06
2022-07-30T05:26:08.593Z,986.06
2022-07-30T05:27:07.571Z,986.10
2022-07-30T05:28:07.555Z,986.11
2022-07-30T05:29:08.225Z,986.13
2022-07-30T05:30:07.575Z,986.06
2022-07-30T05:31:08.793Z,986.09
2022-07-30T05:32:07.516Z,986.09
2022-07-30T05:33:10.971Z,986.09
2022-07-30T05:34:08.541Z,986.05
2022-07-30T05:35:07.521Z,986.12
2022-07-30T05:36:07.481Z,986.09
2022-07-30T05:37:07.450Z,986.08
2022-07-30T05:38:07.467Z,986.06
2022-07-30T05:39:07.453Z,986.03
2022-07-30T05:40:07.447Z,986.08
2022-07-30T05:41:19.130Z,986.08
2022-07-30T05:42:08.387Z,986.09
2022-07-30T05:43:07.379Z,986.06
2022-07-30T05:44:07.366Z,986.05
2022-07-30T05:45:07.412Z,986.06
2022-07-30T05:46:07.394Z,986.03
2022-07-30T05:47:07.339Z,986.06
2022-07-30T05:48:07.389Z,986.10
2022-07-30T05:49:07.407Z,986.07
2022-07-30T05:50:07.307Z,986.09
2022-07-30T05:51:07.333Z,986.08
2022-07-30T05:52:07.375Z,986.09
2022-07-30T05:53:07.320Z,986.09
2022-07-30T05:54:07.279Z,986.07
2022-07-30T05:55:07.311Z,986.08
2022-07-30T05:56:07.248Z,986.08
2022-07-30T05:57:07.242Z,986.11
2022-07-30T05:58:07.243Z,986.13
2022-07-30T05:59:07.242Z,986.14
2022-07-30T06:00:07.242Z,986.15
2022-07-30T06:01:07.211Z,986.13
2022-07-30T06:02:07.193Z,986.16
2022-07-30T06:03:07.182Z,986.16
2022-07-30T06:04:07.189Z,986.15
2022-07-30T06:05:07.201Z,986.13
2022-07-30T06:06:07.184Z,986.11
2022-07-30T06:07:07.146Z,986.16
2022-07-30T06:08:07.206Z,986.13
2022-07-30T06:09:07.114Z,986.16
2022-07-30T06:10:07.176Z,986.18
2022-07-30T06:11:07.092Z,986.14
2022-07-30T06:12:07.162Z,986.15
2022-07-30T06:13:07.076Z,986.19
2022-07-30T06:14:07.104Z,986.20
2022-07-30T06:15:07.086Z,986.21
2022-07-30T06:16:07.146Z,986.25
2022-07-30T06:17:07.029Z,986.26
2022-07-30T06:18:07.038Z,986.32
2022-07-30T06:19:07.055Z,986.23
2022-07-30T06:20:07.017Z,986.24
2022-07-30T06:21:06.989Z,986.25
2022-07-30T06:22:07.230Z,986.24
2022-07-30T06:23:07.002Z,986.25
2022-07-30T06:24:06.974Z,986.27
2022-07-30T06:25:07.041Z,986.25
2022-07-30T06:26:06.980Z,986.28
2022-07-30T06:27:06.920Z,986.26
2022-07-30T06:28:27.449Z,986.25
2022-07-30T06:29:07.910Z,986.31
2022-07-30T06:30:06.900Z,986.25
2022-07-30T06:31:06.957Z,986.24
2022-07-30T06:32:06.894Z,986.33
2022-07-30T06:33:06.871Z,986.30
2022-07-30T06:34:06.902Z,986.29
2022-07-30T06:35:06.842Z,986.27
2022-07-30T06:36:06.849Z,986.23
2022-07-30T06:37:06.821Z,986.29
2022-07-30T06:38:08.041Z,986.27
2022-07-30T06:39:06.818Z,986.34
2022-07-30T06:40:06.865Z,986.30
2022-07-30T06:41:06.793Z,986.32
2022-07-30T06:42:06.754Z,986.28
2022-07-30T06:43:06.773Z,986.29
2022-07-30T06:44:06.744Z,986.28
2022-07-30T06:45:06.734Z,986.33
2022-07-30T06:46:06.788Z,986.28
2022-07-30T06:47:08.148Z,986.29
2022-07-30T06:48:06.706Z,986.29
2022-07-30T06:49:07.083Z,986.39
2022-07-30T06:50:06.674Z,986.26
2022-07-30T06:51:06.653Z,986.28
2022-07-30T06:52:06.717Z,986.39
2022-07-30T06:53:06.670Z,986.31
2022-07-30T06:54:06.625Z,986.29
2022-07-30T06:55:06.640Z,986.26
2022-07-30T06:56:06.627Z,986.29
2022-07-30T06:57:06.618Z,986.32
2022-07-30T06:58:06.629Z,986.42
2022-07-30T06:59:06.579Z,986.30
2022-07-30T07:00:06.605Z,986.45
2022-07-30T07:01:11.233Z,986.33
2022-07-30T07:02:07.559Z,986.39
2022-07-30T07:03:10.002Z,986.34
2022-07-30T07:04:07.621Z,986.37
2022-07-30T07:05:06.579Z,986.34
2022-07-30T07:06:06.548Z,986.37
2022-07-30T07:07:12.321Z,986.36
2022-07-30T07:08:07.541Z,986.36
2022-07-30T07:09:06.481Z,986.38
2022-07-30T07:10:06.487Z,986.36
2022-07-30T07:11:06.461Z,986.41
2022-07-30T07:12:06.433Z,986.37
2022-07-30T07:13:07.916Z,986.36
2022-07-30T07:14:06.514Z,986.43
2022-07-30T07:15:06.403Z,986.44
2022-07-30T07:16:06.410Z,986.41
2022-07-30T07:17:06.978Z,986.42
2022-07-30T07:18:06.387Z,986.46
2022-07-30T07:19:06.411Z,986.41
2022-07-30T07:20:06.376Z,986.41
2022-07-30T07:21:06.342Z,986.42
2022-07-30T07:22:06.427Z,986.40
2022-07-30T07:23:09.156Z,986.41
2022-07-30T07:24:07.375Z,986.44
2022-07-30T07:25:06.324Z,986.42
2022-07-30T07:26:06.307Z,986.48
2022-07-30T07:27:06.264Z,986.47
2022-07-30T07:28:12.743Z,986.43
2022-07-30T07:29:07.258Z,986.46
2022-07-30T07:30:06.490Z,986.45
2022-07-30T07:31:06.277Z,986.41
2022-07-30T07:32:08.076Z,986.45
2022-07-30T07:33:06.231Z,986.41
2022-07-30T07:34:06.273Z,986.45
2022-07-30T07:35:06.214Z,986.45
2022-07-30T07:36:06.189Z,986.39
2022-07-30T07:37:06.260Z,986.47
2022-07-30T07:38:06.160Z,986.48
2022-07-30T07:39:06.142Z,986.50
2022-07-30T07:40:06.179Z,986.47
2022-07-30T07:41:06.150Z,986.43
2022-07-30T07:42:06.120Z,986.40
2022-07-30T07:43:06.180Z,986.39
2022-07-30T07:44:06.111Z,986.47
2022-07-30T07:45:06.080Z,986.46
2022-07-30T07:46:06.143Z,986.45
2022-07-30T07:47:06.073Z,986.48
2022-07-30T07:48:06.088Z,986.39
2022-07-30T07:49:06.098Z,986.38
2022-07-30T07:50:06.043Z,986.44
2022-07-30T07:51:09.648Z,986.51
2022-07-30T07:52:06.013Z,986.47
2022-07-30T07:53:05.993Z,986.44
2022-07-30T07:54:20.981Z,986.52
2022-07-30T07:55:06.981Z,986.48
2022-07-30T07:56:05.995Z,986.45
2022-07-30T07:57:06.215Z,986.53
2022-07-30T07:58:06.480Z,986.57
2022-07-30T07:59:06.046Z,986.47
2022-07-30T08:00:05.965Z,986.44
2022-07-30T08:01:05.969Z,986.50
2022-07-30T08:02:05.972Z,986.43
2022-07-30T08:03:05.927Z,986.48
2022-07-30T08:04:10.570Z,986.41
2022-07-30T08:05:05.877Z,986.43
2022-07-30T08:06:06.880Z,986.40
2022-07-30T08:07:05.868Z,986.46
2022-07-30T08:08:05.868Z,986.45
2022-07-30T08:09:05.849Z,986.43
2022-07-30T08:10:05.851Z,986.48
2022-07-30T08:11:05.809Z,986.61
2022-07-30T08:12:05.798Z,986.40
2022-07-30T08:13:05.831Z,986.44
2022-07-30T08:14:05.790Z,986.40
2022-07-30T08:15:05.810Z,986.40
2022-07-30T08:16:05.814Z,986.43
2022-07-30T08:17:07.497Z,986.43
2022-07-30T08:18:05.780Z,986.43
2022-07-30T08:19:05.722Z,986.39
2022-07-30T08:20:05.764Z,986.48
2022-07-30T08:21:05.693Z,986.37
2022-07-30T08:22:05.689Z,986.31
2022-07-30T08:23:05.700Z,986.43
2022-07-30T08:24:05.795Z,986.42
2022-07-30T08:25:05.673Z,986.47
2022-07-30T08:26:05.652Z,986.47
2022-07-30T08:27:05.784Z,986.41
2022-07-30T08:28:05.655Z,986.38
2022-07-30T08:29:05.654Z,986.40
2022-07-30T08:30:05.616Z,986.37
2022-07-30T08:31:05.643Z,986.40
2022-07-30T08:32:05.790Z,986.41
2022-07-30T08:33:05.615Z,986.38
2022-07-30T08:34:05.586Z,986.32
2022-07-30T08:35:05.545Z,986.38
2022-07-30T08:36:09.838Z,986.39
2022-07-30T08:37:05.556Z,986.45
2022-07-30T08:38:05.547Z,986.41
2022-07-30T08:39:05.537Z,986.42
2022-07-30T08:40:05.509Z,986.39
2022-07-30T08:41:05.493Z,986.39
2022-07-30T08:42:05.800Z,986.43
2022-07-30T08:43:05.531Z,986.40
2022-07-30T08:44:10.124Z,986.46
2022-07-30T08:45:06.467Z,986.46
2022-07-30T08:46:05.441Z,986.38
2022-07-30T08:47:05.721Z,986.37
2022-07-30T08:48:05.430Z,986.36
2022-07-30T08:49:10.975Z,986.39
2022-07-30T08:50:06.398Z,986.37
2022-07-30T08:51:05.401Z,986.42
2022-07-30T08:52:05.646Z,986.46
2022-07-30T08:53:05.401Z,986.52
2022-07-30T08:54:05.411Z,986.47
2022-07-30T08:55:05.372Z,986.41
2022-07-30T08:56:05.342Z,986.43
2022-07-30T08:57:05.303Z,986.45
2022-07-30T08:58:05.311Z,986.40
2022-07-30T08:59:05.302Z,986.47
2022-07-30T09:00:05.305Z,986.40
2022-07-30T09:01:05.293Z,986.58
2022-07-30T09:02:08.937Z,986.47
2022-07-30T09:03:06.254Z,986.49
2022-07-30T09:05:05.255Z,986.42
2022-07-30T09:06:05.235Z,986.36
2022-07-30T09:07:05.314Z,986.38
2022-07-30T09:08:08.824Z,986.34
2022-07-30T09:09:05.324Z,986.37
2022-07-30T09:10:05.187Z,986.40
2022-07-30T09:11:05.187Z,986.40
2022-07-30T09:12:05.509Z,986.33
2022-07-30T09:13:05.160Z,986.36
2022-07-30T09:14:08.368Z,986.38
2022-07-30T09:15:05.138Z,986.39
2022-07-30T09:16:05.179Z,986.36
2022-07-30T09:17:05.479Z,986.35
2022-07-30T09:18:05.129Z,986.38
2022-07-30T09:19:05.079Z,986.46
2022-07-30T09:20:05.070Z,986.46
2022-07-30T09:21:05.070Z,986.40
2022-07-30T09:22:05.070Z,986.45
2022-07-30T09:23:05.071Z,986.49
2022-07-30T09:24:05.040Z,986.45
2022-07-30T09:25:05.039Z,986.46
2022-07-30T09:26:05.048Z,986.44
2022-07-30T09:27:05.527Z,986.43
2022-07-30T09:28:16.780Z,986.44
2022-07-30T09:29:06.001Z,986.46
2022-07-30T09:30:05.022Z,986.44
2022-07-30T09:31:05.014Z,986.45
2022-07-30T09:32:05.489Z,986.34
2022-07-30T09:33:04.934Z,986.42
2022-07-30T09:34:04.973Z,986.34
2022-07-30T09:35:06.331Z,986.30
2022-07-30T09:36:04.935Z,986.28
2022-07-30T09:37:04.904Z,986.38
2022-07-30T09:38:06.672Z,986.33
2022-07-30T09:39:04.905Z,986.29
2022-07-30T09:40:04.901Z,986.38
2022-07-30T09:41:12.429Z,986.33
2022-07-30T09:42:05.946Z,986.35
2022-07-30T09:43:05.886Z,986.30
2022-07-30T09:44:04.828Z,986.38
2022-07-30T09:45:04.836Z,986.32
2022-07-30T09:46:04.809Z,986.31
2022-07-30T09:47:04.798Z,986.45
2022-07-30T09:48:04.776Z,986.30
2022-07-30T09:49:04.811Z,986.31
2022-07-30T09:50:07.403Z,986.33
2022-07-30T09:51:04.739Z,986.30
2022-07-30T09:52:04.789Z,986.29
2022-07-30T09:53:04.803Z,986.33
2022-07-30T09:54:04.732Z,986.32
2022-07-30T09:55:04.762Z,986.28
2022-07-30T09:56:04.707Z,986.35
2022-07-30T09:57:04.702Z,986.29
2022-07-30T09:58:04.691Z,986.30
2022-07-30T09:59:04.716Z,986.40
2022-07-30T10:00:04.664Z,986.34
2022-07-30T10:01:04.691Z,986.33
2022-07-30T10:02:05.157Z,986.31
2022-07-30T10:03:12.256Z,986.25
2022-07-30T10:04:05.603Z,986.24
2022-07-30T10:05:04.614Z,986.22
2022-07-30T10:06:04.624Z,986.19
2022-07-30T10:07:04.574Z,986.19
2022-07-30T10:08:16.440Z,986.19
2022-07-30T10:09:13.985Z,986.24
2022-07-30T10:10:06.272Z,986.21
2022-07-30T10:11:08.600Z,986.36
2022-07-30T10:12:05.865Z,986.18
2022-07-30T10:13:05.523Z,986.24
2022-07-30T10:14:04.574Z,986.39
2022-07-30T10:15:06.208Z,986.29
2022-07-30T10:16:04.488Z,986.21
2022-07-30T10:17:04.484Z,986.22
2022-07-30T10:18:06.009Z,986.17
2022-07-30T10:19:04.497Z,986.17
2022-07-30T10:20:08.276Z,986.20
2022-07-30T10:21:05.352Z,986.17
2022-07-30T10:22:04.719Z,986.28
2022-07-30T10:23:08.136Z,986.23
2022-07-30T10:24:04.461Z,986.20
2022-07-30T10:25:05.174Z,986.19
2022-07-30T10:26:04.394Z,986.20
2022-07-30T10:27:06.277Z,986.24
2022-07-30T10:28:04.349Z,986.18
2022-07-30T10:29:04.380Z,986.20
2022-07-30T10:30:04.440Z,986.33
2022-07-30T10:31:08.474Z,986.24
2022-07-30T10:32:05.325Z,986.18
2022-07-30T10:33:04.416Z,986.16
2022-07-30T10:34:04.295Z,986.18
2022-07-30T10:35:04.302Z,986.11
2022-07-30T10:36:04.350Z,986.11
2022-07-30T10:37:04.828Z,986.13
2022-07-30T10:38:04.234Z,986.06
2022-07-30T10:39:04.265Z,986.12
2022-07-30T10:40:04.267Z,986.10
2022-07-30T10:41:04.216Z,986.11
2022-07-30T10:42:04.235Z,986.07
2022-07-30T10:43:04.217Z,986.07
2022-07-30T10:44:04.188Z,986.21
2022-07-30T10:45:04.312Z,986.13
2022-07-30T10:46:05.078Z,986.13
2022-07-30T10:47:07.854Z,986.09
2022-07-30T10:48:05.594Z,986.07
2022-07-30T10:49:04.183Z,986.12
2022-07-30T10:50:05.157Z,986.04
2022-07-30T10:51:04.196Z,986.17
2022-07-30T10:52:04.170Z,986.06
2022-07-30T10:53:04.131Z,986.11
2022-07-30T10:54:04.100Z,986.04
2022-07-30T10:55:04.062Z,986.05
2022-07-30T10:56:04.091Z,985.99
2022-07-30T10:57:04.302Z,986.01
2022-07-30T10:58:04.073Z,986.07
2022-07-30T10:59:04.090Z,986.02
2022-07-30T11:00:04.484Z,986.10
2022-07-30T11:01:04.036Z,985.99
2022-07-30T11:02:04.252Z,986.00
2022-07-30T11:03:14.134Z,986.03
2022-07-30T11:04:05.007Z,986.00
2022-07-30T11:05:03.974Z,986.03
2022-07-30T11:06:04.015Z,986.01
2022-07-30T11:07:03.959Z,985.94
2022-07-30T11:08:03.935Z,986.00
2022-07-30T11:09:03.937Z,986.07
2022-07-30T11:10:09.092Z,985.96
2022-07-30T11:11:19.722Z,985.99
2022-07-30T11:12:06.373Z,986.10
2022-07-30T11:13:03.936Z,986.02
2022-07-30T11:14:03.939Z,986.04
2022-07-30T11:15:06.510Z,986.04
2022-07-30T11:16:04.840Z,986.06
2022-07-30T11:17:03.829Z,986.01
2022-07-30T11:18:04.314Z,985.98
2022-07-30T11:20:04.818Z,985.94
2022-07-30T11:21:05.935Z,985.98
2022-07-30T11:22:04.183Z,985.94
2022-07-30T11:23:03.791Z,985.93
2022-07-30T11:24:03.772Z,985.89
2022-07-30T11:25:12.526Z,985.83
2022-07-30T11:26:04.797Z,985.85
2022-07-30T11:27:03.741Z,985.81
2022-07-30T11:28:03.733Z,985.81
2022-07-30T11:29:03.703Z,985.87
2022-07-30T11:30:03.745Z,985.85
2022-07-30T11:31:10.066Z,985.89
2022-07-30T11:32:06.897Z,985.80
2022-07-30T11:33:03.723Z,985.84
2022-07-30T11:34:03.657Z,985.90
2022-07-30T11:35:03.663Z,985.97
2022-07-30T11:36:03.655Z,985.88
2022-07-30T11:37:21.726Z,985.85
2022-07-30T11:38:04.618Z,985.75
2022-07-30T11:39:06.990Z,985.81
2022-07-30T11:40:03.617Z,985.80
2022-07-30T11:41:03.610Z,985.76
2022-07-30T11:42:03.928Z,985.76
2022-07-30T11:43:03.564Z,985.79
2022-07-30T11:44:03.538Z,985.81
2022-07-30T11:45:04.163Z,985.75
2022-07-30T11:46:03.573Z,985.76
2022-07-30T11:47:03.550Z,985.68
2022-07-30T11:48:03.563Z,985.61
2022-07-30T11:49:03.543Z,985.67
2022-07-30T11:50:03.480Z,985.67
2022-07-30T11:51:04.092Z,985.78
2022-07-30T11:52:04.126Z,985.75
2022-07-30T11:53:03.484Z,985.71
2022-07-30T11:54:03.473Z,985.64
2022-07-30T11:55:03.443Z,985.72
2022-07-30T11:56:03.447Z,985.62
2022-07-30T11:57:04.742Z,985.65
2022-07-30T11:58:03.446Z,985.74
2022-07-30T11:59:03.434Z,985.72
2022-07-30T12:00:03.399Z,985.61
2022-07-30T12:01:03.439Z,985.90
2022-07-30T12:02:04.675Z,985.71
2022-07-30T12:03:04.320Z,985.74
2022-07-30T12:04:03.354Z,985.70
2022-07-30T12:05:03.370Z,985.62
2022-07-30T12:06:03.357Z,985.74
2022-07-30T12:07:03.723Z,985.72
2022-07-30T12:08:03.307Z,985.63
2022-07-30T12:09:03.306Z,985.61
2022-07-30T12:10:03.298Z,985.59
2022-07-30T12:11:03.365Z,985.55
2022-07-30T12:12:03.332Z,985.59
2022-07-30T12:13:03.298Z,985.62
2022-07-30T12:14:03.260Z,985.51
2022-07-30T12:15:03.231Z,985.59
2022-07-30T12:16:03.262Z,985.60
2022-07-30T12:17:03.553Z,985.45
2022-07-30T12:18:25.313Z,985.64
2022-07-30T12:19:04.242Z,985.59
2022-07-30T12:20:03.192Z,985.52
2022-07-30T12:21:03.183Z,985.50
2022-07-30T12:22:03.222Z,985.42
2022-07-30T12:23:03.289Z,985.44
2022-07-30T12:24:03.133Z,985.43
2022-07-30T12:25:03.129Z,985.55
2022-07-30T12:26:03.176Z,985.42
2022-07-30T12:27:03.559Z,985.44
2022-07-30T12:28:03.141Z,985.39
2022-07-30T12:29:03.097Z,985.43
2022-07-30T12:30:03.076Z,985.49